createdAt,value
2022-12-05T05:29:28.261Z,100708.69
2022-12-05T05:31:54.588Z,100707.00
2022-12-05T05:34:20.965Z,100713.84
2022-12-05T05:36:51.019Z,100705.19
2022-12-05T05:39:17.386Z,100710.34
2022-12-05T05:41:44.038Z,100706.28
2022-12-05T05:44:10.584Z,100706.88
2022-12-05T05:46:37.128Z,100700.69
2022-12-05T05:49:04.142Z,100720.06
2022-12-05T05:51:30.633Z,100703.16
2022-12-05T05:53:57.343Z,100714.69
2022-12-05T05:56:23.730Z,100707.06
2022-12-05T05:58:57.019Z,100706.84
2022-12-05T06:01:23.652Z,100712.63
2022-12-05T06:03:50.969Z,100707.28
2022-12-05T06:06:18.310Z,100721.72
2022-12-05T06:08:45.042Z,100708.94
2022-12-05T06:11:13.118Z,100704.59
2022-12-05T06:13:39.676Z,100698.59
2022-12-05T06:16:07.656Z,100707.88
2022-12-05T06:18:34.195Z,100715.44
2022-12-05T06:21:01.018Z,100712.13
2022-12-05T06:23:27.523Z,100713.53
2022-12-05T06:25:54.727Z,100711.16
2022-12-05T06:28:22.044Z,100710.47
2022-12-05T06:30:48.472Z,100720.47
2022-12-05T06:33:15.018Z,100718.75
2022-12-05T06:35:42.876Z,100724.00
2022-12-05T06:38:09.908Z,100722.25
2022-12-05T06:40:39.579Z,100724.69
2022-12-05T06:43:05.928Z,100725.38
2022-12-05T06:45:32.470Z,100730.63
2022-12-05T06:47:58.939Z,100730.50
2022-12-05T06:50:25.380Z,100740.69
2022-12-05T06:52:51.727Z,100737.50
2022-12-05T06:55:18.171Z,100735.13
2022-12-05T06:57:45.328Z,100737.09
2022-12-05T07:00:30.657Z,100731.69
2022-12-05T07:02:57.124Z,100743.28
2022-12-05T07:05:23.555Z,100741.38
2022-12-05T07:07:50.010Z,100742.09
2022-12-05T07:10:16.407Z,100744.50
2022-12-05T07:12:42.785Z,100745.25
2022-12-05T07:15:09.288Z,100747.66
2022-12-05T07:17:36.359Z,100752.72
2022-12-05T07:20:02.941Z,100752.44
2022-12-05T07:22:29.392Z,100752.19
2022-12-05T07:24:55.797Z,100753.56
2022-12-05T07:27:27.334Z,100757.59
2022-12-05T07:29:54.517Z,100756.31
2022-12-05T07:32:21.156Z,100762.03
2022-12-05T07:34:52.144Z,100758.72
2022-12-05T07:37:21.224Z,100758.25
2022-12-05T07:39:47.592Z,100759.47
2022-12-05T07:42:13.962Z,100764.97
2022-12-05T07:44:40.368Z,100769.47
2022-12-05T07:47:06.712Z,100764.34
2022-12-05T07:49:33.085Z,100772.53
2022-12-05T07:51:59.470Z,100767.53
2022-12-05T07:54:25.874Z,100776.56
2022-12-05T07:56:52.233Z,100774.06
2022-12-05T07:59:18.645Z,100764.44
2022-12-05T08:01:45.095Z,100772.44
2022-12-05T08:04:15.333Z,100775.44
2022-12-05T08:06:42.335Z,100772.13
2022-12-05T08:09:08.994Z,100764.31
2022-12-05T08:11:36.257Z,100771.47
2022-12-05T08:14:03.621Z,100773.53
2022-12-05T08:16:30.604Z,100773.84
2022-12-05T08:18:57.758Z,100774.88
2022-12-05T08:21:25.326Z,100772.56
2022-12-05T08:23:52.088Z,100770.09
2022-12-05T08:26:20.631Z,100772.13
2022-12-05T08:28:50.490Z,100773.94
2022-12-05T08:31:17.937Z,100781.47
2022-12-05T08:33:44.731Z,100773.66
2022-12-05T08:36:12.483Z,100777.34
2022-12-05T08:38:39.006Z,100775.69
2022-12-05T08:41:06.606Z,100773.22
2022-12-05T08:43:33.522Z,100779.34
2022-12-05T08:46:00.339Z,100784.88
2022-12-05T08:48:29.441Z,100791.19
2022-12-05T08:50:56.194Z,100793.22
2022-12-05T08:53:22.787Z,100790.53
2022-12-05T08:55:49.107Z,100787.25
2022-12-05T08:58:15.887Z,100789.25
2022-12-05T09:00:42.716Z,100784.09
2022-12-05T09:03:12.644Z,100792.28
2022-12-05T09:05:39.468Z,100795.13
2022-12-05T09:08:06.051Z,100797.97
2022-12-05T09:10:32.523Z,100795.50
2022-12-05T09:12:58.867Z,100785.00
2022-12-05T09:15:25.346Z,100791.34
2022-12-05T09:17:51.863Z,100790.50
2022-12-05T09:20:18.376Z,100790.69
2022-12-05T09:22:44.704Z,100790.06
2022-12-05T09:25:11.075Z,100789.22
2022-12-05T09:27:37.503Z,100788.41
2022-12-05T09:30:04.551Z,100786.72
2022-12-05T09:32:31.088Z,100793.06
2022-12-05T09:34:57.681Z,100792.06
2022-12-05T09:37:38.786Z,100790.41
2022-12-05T09:40:06.745Z,100785.06
2022-12-05T09:42:38.241Z,100792.06
2022-12-05T09:45:17.662Z,100785.91
2022-12-05T09:47:52.901Z,100796.56
2022-12-05T09:50:22.431Z,100799.38
2022-12-05T09:52:48.848Z,100796.72
2022-12-05T09:55:17.412Z,100799.38
2022-12-05T09:57:50.161Z,100798.38
2022-12-05T10:00:16.867Z,100799.38
2022-12-05T10:02:46.353Z,100788.72
2022-12-05T10:05:22.369Z,100785.06
2022-12-05T10:07:56.578Z,100784.06
2022-12-05T10:10:23.052Z,100770.75
2022-12-05T10:13:04.485Z,100773.22
2022-12-05T10:15:31.067Z,100783.69
2022-12-05T10:18:17.809Z,100771.41
2022-12-05T10:20:52.798Z,100778.19
2022-12-05T10:23:55.417Z,100778.03
2022-12-05T10:26:12.700Z,100784.00
2022-12-05T10:28:52.281Z,100782.00
2022-12-05T10:31:22.622Z,100782.81
2022-12-05T10:33:52.692Z,100782.81
2022-12-05T10:36:19.105Z,100779.13
2022-12-05T10:38:46.276Z,100774.63
2022-12-05T10:41:13.865Z,100777.09
2022-12-05T10:43:45.391Z,100774.44
2022-12-05T10:46:16.989Z,100775.28
2022-12-05T10:48:44.289Z,100781.63
2022-12-05T10:51:15.026Z,100781.63
2022-12-05T10:53:44.757Z,100777.09
2022-12-05T10:56:31.000Z,100784.94
2022-12-05T10:58:58.408Z,100788.25
2022-12-05T11:01:26.218Z,100781.25
2022-12-05T11:03:58.510Z,100784.56
2022-12-05T11:06:31.903Z,100782.53
2022-12-05T11:09:33.676Z,100784.88
2022-12-05T11:12:02.893Z,100774.84
2022-12-05T11:14:34.519Z,100774.50
2022-12-05T11:17:01.567Z,100776.59
2022-12-05T11:19:28.132Z,100777.28
2022-12-05T11:21:55.318Z,100768.91
2022-12-05T11:24:25.658Z,100763.00
2022-12-05T11:26:52.154Z,100774.34
2022-12-05T11:29:32.634Z,100760.00
2022-12-05T11:31:59.114Z,100755.13
2022-12-05T11:34:35.398Z,100755.13
2022-12-05T11:37:06.634Z,100757.63
2022-12-05T11:39:33.258Z,100757.63
2022-12-05T11:42:05.698Z,100759.25
2022-12-05T11:44:49.580Z,100756.59
2022-12-05T11:47:34.306Z,100755.56
2022-12-05T11:50:12.778Z,100744.91
2022-12-05T11:52:40.972Z,100748.56
2022-12-05T11:55:16.455Z,100743.25
2022-12-05T11:58:01.958Z,100737.91
2022-12-05T12:00:56.659Z,100736.28
2022-12-05T12:03:37.432Z,100743.25
2022-12-05T12:06:12.818Z,100745.75
2022-12-05T12:08:48.598Z,100741.25
2022-12-05T12:11:33.638Z,100745.38
2022-12-05T12:14:05.715Z,100743.34
2022-12-05T12:16:39.222Z,100748.53
2022-12-05T12:19:12.971Z,100750.16
2022-12-05T12:21:58.143Z,100744.66
2022-12-05T12:24:34.295Z,100740.13
2022-12-05T12:27:05.957Z,100743.47
2022-12-05T12:29:45.057Z,100746.13
2022-12-05T12:32:27.773Z,100749.63
2022-12-05T12:35:06.139Z,100747.75
2022-12-05T12:37:51.364Z,100741.63
2022-12-05T12:40:20.858Z,100748.63
2022-12-05T12:42:50.257Z,100750.09
2022-12-05T12:45:21.102Z,100756.22
2022-12-05T12:47:58.785Z,100755.03
2022-12-05T12:50:26.724Z,100762.03
2022-12-05T12:53:05.525Z,100753.19
2022-12-05T12:55:44.939Z,100751.19
2022-12-05T12:58:17.349Z,100754.66
2022-12-05T13:00:46.745Z,100747.50
2022-12-05T13:03:28.604Z,100745.66
2022-12-05T13:06:04.980Z,100744.66
2022-12-05T13:08:38.693Z,100748.31
2022-12-05T13:11:07.542Z,100745.66
2022-12-05T13:13:40.593Z,100751.00
2022-12-05T13:16:08.222Z,100756.31
2022-12-05T13:18:35.558Z,100751.19
2022-12-05T13:21:03.765Z,100747.66
2022-12-05T13:23:32.741Z,100758.34
2022-12-05T13:26:00.335Z,100744.94
2022-12-05T13:28:28.476Z,100744.00
2022-12-05T13:30:58.067Z,100752.22
2022-12-05T13:33:30.742Z,100750.16
2022-12-05T13:36:21.580Z,100751.72
2022-12-05T13:39:06.459Z,100748.69
2022-12-05T13:41:58.842Z,100747.81
2022-12-05T13:44:31.907Z,100757.53
2022-12-05T13:46:58.295Z,100756.75
2022-12-05T13:49:45.195Z,100752.25
2022-12-05T13:52:19.821Z,100764.19
2022-12-05T13:54:51.735Z,100758.78
2022-12-05T13:57:36.918Z,100757.91
2022-12-05T14:00:09.329Z,100761.97
2022-12-05T14:02:41.983Z,100760.44
2022-12-05T14:05:14.675Z,100760.16
2022-12-05T14:07:44.408Z,100764.19
2022-12-05T14:10:16.764Z,100756.72
2022-12-05T14:12:59.467Z,100758.22
2022-12-05T14:15:42.819Z,100765.94
2022-12-05T14:18:17.074Z,100767.28
2022-12-05T14:20:48.709Z,100760.41
2022-12-05T14:23:39.794Z,100762.38
2022-12-05T14:26:13.005Z,100760.66
2022-12-05T14:28:58.240Z,100761.38
2022-12-05T14:31:43.927Z,100753.50
2022-12-05T14:34:18.452Z,100755.91
2022-12-05T14:36:58.920Z,100756.63
2022-12-05T14:39:37.623Z,100765.19
2022-12-05T14:42:07.457Z,100758.78
2022-12-05T14:44:34.259Z,100760.97
2022-12-05T14:47:03.361Z,100760.50
2022-12-05T14:49:48.686Z,100753.91
2022-12-05T14:52:18.885Z,100757.13
2022-12-05T14:54:45.402Z,100752.19
2022-12-05T14:57:16.250Z,100763.22
2022-12-05T14:59:52.677Z,100763.78
2022-12-05T15:02:22.626Z,100762.50
2022-12-05T15:05:10.979Z,100764.69
2022-12-05T15:07:38.737Z,100760.94
2022-12-05T15:10:08.280Z,100764.81
2022-12-05T15:12:43.767Z,100761.28
2022-12-05T15:15:17.288Z,100770.66
2022-12-05T15:17:49.039Z,100772.72
2022-12-05T15:20:24.287Z,100774.72
2022-12-05T15:22:50.719Z,100768.75
2022-12-05T15:25:24.411Z,100762.75
2022-12-05T15:28:02.096Z,100770.75
2022-12-05T15:30:29.371Z,100775.47
2022-12-05T15:32:59.414Z,100773.81
2022-12-05T15:35:27.439Z,100779.16
2022-12-05T15:37:56.371Z,100782.81
2022-12-05T15:40:23.612Z,100778.47
2022-12-05T15:42:51.018Z,100775.81
2022-12-05T15:45:21.743Z,100786.50
2022-12-05T15:47:49.288Z,100778.69
2022-12-05T15:50:17.159Z,100787.50
2022-12-05T15:52:54.405Z,100787.69
2022-12-05T15:55:27.345Z,100790.16
2022-12-05T15:57:57.925Z,100793.84
2022-12-05T16:00:26.117Z,100784.81
2022-12-05T16:02:56.819Z,100788.69
2022-12-05T16:05:52.648Z,100790.53
2022-12-05T16:08:19.261Z,100800.38
2022-12-05T16:10:45.759Z,100792.56
2022-12-05T16:13:14.014Z,100793.56
2022-12-05T16:15:46.460Z,100798.25
2022-12-05T16:18:28.703Z,100797.44
2022-12-05T16:20:55.303Z,100796.59
2022-12-05T16:23:26.365Z,100800.28
2022-12-05T16:25:52.820Z,100800.47
2022-12-05T16:28:20.477Z,100796.97
2022-12-05T16:31:17.656Z,100804.94
2022-12-05T16:33:44.219Z,100799.81
2022-12-05T16:36:11.604Z,100803.28
2022-12-05T16:38:38.420Z,100797.31
2022-12-05T16:41:06.184Z,100792.00
2022-12-05T16:43:32.898Z,100794.66
2022-12-05T16:46:08.752Z,100807.34
2022-12-05T16:48:36.212Z,100797.50
2022-12-05T16:51:16.433Z,100794.00
2022-12-05T16:53:46.010Z,100796.66
2022-12-05T16:56:15.403Z,100793.19
2022-12-05T16:58:42.070Z,100796.84
2022-12-05T17:01:15.113Z,100789.84
2022-12-05T17:03:41.511Z,100796.84
2022-12-05T17:06:08.027Z,100796.03
2022-12-05T17:08:34.581Z,100785.38
2022-12-05T17:11:03.480Z,100787.19
2022-12-05T17:13:30.752Z,100790.03
2022-12-05T17:15:57.155Z,100805.03
2022-12-05T17:18:29.554Z,100798.69
2022-12-05T17:21:00.027Z,100802.38
2022-12-05T17:23:26.556Z,100804.03
2022-12-05T17:25:57.275Z,100796.22
2022-12-05T17:28:24.223Z,100805.03
2022-12-05T17:30:50.706Z,100805.84
2022-12-05T17:33:18.434Z,100794.38
2022-12-05T17:35:45.106Z,100798.88
2022-12-05T17:38:11.547Z,100798.03
2022-12-05T17:40:38.503Z,100802.56
2022-12-05T17:43:05.104Z,100794.75
2022-12-05T17:45:31.765Z,100808.06
2022-12-05T17:47:58.175Z,100803.75
2022-12-05T17:50:24.987Z,100808.22
2022-12-05T17:52:51.961Z,100803.94
2022-12-05T17:57:55.609Z,100806.59
2022-12-05T23:58:01.975Z,100774.91
